createdAt,value
2023-02-18T00:04:38.506Z,9.89
2023-02-18T00:09:41.233Z,9.86
2023-02-18T00:14:44.226Z,9.84
2023-02-18T00:19:48.322Z,9.84
2023-02-18T00:24:51.618Z,9.79
2023-02-18T00:29:54.411Z,9.79
2023-02-18T00:34:58.494Z,9.78
2023-02-18T00:40:01.322Z,9.77
2023-02-18T00:45:04.056Z,9.75
2023-02-18T00:50:10.322Z,9.75
2023-02-18T00:55:13.184Z,9.76
2023-02-18T01:00:16.662Z,9.77
2023-02-18T01:05:21.424Z,9.75
2023-02-18T01:10:24.239Z,9.74
2023-02-18T01:15:27.193Z,9.74
2023-02-18T01:20:31.374Z,9.73
2023-02-18T01:25:34.863Z,9.75
2023-02-18T01:30:37.599Z,9.76
2023-02-18T01:35:42.218Z,9.73
2023-02-18T01:40:48.083Z,9.71
2023-02-18T01:45:57.859Z,9.73
2023-02-18T01:51:07.196Z,9.74
2023-02-18T01:56:15.604Z,9.78
2023-02-18T02:01:18.593Z,9.78
2023-02-18T02:06:24.589Z,9.79
2023-02-18T02:11:42.618Z,9.82
2023-02-18T02:16:51.552Z,9.80
2023-02-18T02:22:29.862Z,9.77
2023-02-18T02:28:03.394Z,9.72
2023-02-18T02:33:43.664Z,9.70
2023-02-18T02:38:59.339Z,9.69
2023-02-18T02:44:13.128Z,9.63
2023-02-18T02:49:25.795Z,9.62
2023-02-18T02:54:30.129Z,9.60
2023-02-18T02:59:34.462Z,9.56
2023-02-18T03:05:00.563Z,9.55
2023-02-18T03:10:19.074Z,9.54
2023-02-18T03:15:26.987Z,9.52
2023-02-18T03:20:36.389Z,9.51
2023-02-18T03:25:41.537Z,9.48
2023-02-18T03:30:48.985Z,9.48
2023-02-18T03:35:52.966Z,9.51
2023-02-18T03:40:57.522Z,9.52
2023-02-18T03:46:01.004Z,9.54
2023-02-18T03:51:03.822Z,9.55
2023-02-18T03:56:08.789Z,9.57
2023-02-18T04:01:11.742Z,9.59
2023-02-18T04:06:14.601Z,9.60
2023-02-18T04:11:19.029Z,9.61
2023-02-18T04:16:21.865Z,9.63
2023-02-18T04:21:24.653Z,9.64
2023-02-18T04:26:28.852Z,9.62
2023-02-18T04:31:31.720Z,9.64
2023-02-18T04:36:34.588Z,9.66
2023-02-18T04:41:38.663Z,9.66
2023-02-18T04:46:41.379Z,9.64
2023-02-18T04:51:44.205Z,9.66
2023-02-18T04:56:48.580Z,9.68
2023-02-18T05:01:51.624Z,9.66
2023-02-18T05:06:54.464Z,9.68
2023-02-18T05:11:58.623Z,9.69
2023-02-18T05:17:01.354Z,9.67
2023-02-18T05:22:04.102Z,9.66
2023-02-18T05:27:08.249Z,9.67
2023-02-18T05:32:11.065Z,9.66
2023-02-18T05:37:14.284Z,9.67
2023-02-18T05:42:18.380Z,9.65
2023-02-18T05:47:21.179Z,9.66
2023-02-18T05:52:24.284Z,9.65
2023-02-18T05:57:28.388Z,9.66
2023-02-18T06:02:31.276Z,9.65
2023-02-18T06:07:34.110Z,9.64
2023-02-18T06:12:38.273Z,9.66
2023-02-18T06:17:41.025Z,9.65
2023-02-18T06:22:43.790Z,9.66
2023-02-18T06:27:47.909Z,9.65
2023-02-18T06:32:50.660Z,9.67
2023-02-18T06:37:53.440Z,9.64
2023-02-18T06:42:57.545Z,9.62
2023-02-18T06:48:00.294Z,9.61
2023-02-18T06:53:03.125Z,9.60
2023-02-18T06:58:07.319Z,9.62
2023-02-18T07:03:12.115Z,9.61
2023-02-18T07:08:15.067Z,9.66
2023-02-18T07:13:19.329Z,9.75
2023-02-18T07:18:22.068Z,9.89
2023-02-18T07:23:24.845Z,9.86
2023-02-18T07:28:29.666Z,9.94
2023-02-18T07:33:32.669Z,9.91
2023-02-18T07:38:35.628Z,9.93
2023-02-18T07:43:39.790Z,9.88
2023-02-18T07:48:42.575Z,9.85
2023-02-18T07:53:45.971Z,9.81
2023-02-18T07:58:50.132Z,9.81
2023-02-18T08:03:53.746Z,9.89
2023-02-18T08:08:56.553Z,9.99
2023-02-18T08:14:00.834Z,9.98
2023-02-18T08:19:04.789Z,9.94
2023-02-18T08:24:09.060Z,9.98
2023-02-18T08:29:13.118Z,10.00
2023-02-18T08:34:15.903Z,9.97
2023-02-18T08:39:18.807Z,9.88
2023-02-18T08:44:22.948Z,9.88
2023-02-18T08:49:25.906Z,9.81
2023-02-18T08:54:29.389Z,9.93
2023-02-18T08:59:33.624Z,9.92
2023-02-18T09:04:36.357Z,9.93
2023-02-18T09:09:39.118Z,9.96
2023-02-18T09:14:43.279Z,9.87
2023-02-18T09:19:46.041Z,9.88
2023-02-18T09:24:48.795Z,9.94
2023-02-18T09:29:52.915Z,10.02
2023-02-18T09:34:55.608Z,10.03
2023-02-18T09:39:59.965Z,10.10
2023-02-18T09:45:08.037Z,10.12
2023-02-18T09:50:19.013Z,10.15
2023-02-18T09:55:24.202Z,10.42
2023-02-18T10:00:34.105Z,10.42
2023-02-18T10:05:38.368Z,10.33
2023-02-18T10:10:45.081Z,10.25
2023-02-18T10:15:51.437Z,10.22
2023-02-18T10:21:01.574Z,10.31
2023-02-18T10:26:08.096Z,10.45
2023-02-18T10:31:16.436Z,10.38
2023-02-18T10:36:25.648Z,10.35
2023-02-18T10:41:35.272Z,10.51
2023-02-18T10:46:52.173Z,10.59
2023-02-18T10:51:58.862Z,10.86
2023-02-18T10:57:04.719Z,10.75
2023-02-18T11:02:19.239Z,10.52
2023-02-18T11:07:24.986Z,10.50
2023-02-18T11:12:31.185Z,10.51
2023-02-18T11:17:37.870Z,10.42
2023-02-18T11:22:41.535Z,10.42
2023-02-18T11:27:47.382Z,10.57
2023-02-18T11:32:54.162Z,10.49
2023-02-18T11:37:59.655Z,10.63
2023-02-18T11:43:08.229Z,10.40
2023-02-18T11:48:18.360Z,10.32
2023-02-18T11:53:29.740Z,10.33
2023-02-18T11:58:39.434Z,10.24
2023-02-18T12:03:48.540Z,10.29
2023-02-18T12:08:55.180Z,10.09
2023-02-18T12:13:59.811Z,9.86
2023-02-18T12:19:22.991Z,9.87
2023-02-18T12:24:46.895Z,9.82
2023-02-18T12:30:26.742Z,9.71
2023-02-18T12:35:46.853Z,9.74
2023-02-18T12:41:13.650Z,9.75
2023-02-18T12:46:42.016Z,9.75
2023-02-18T12:52:08.611Z,9.67
2023-02-18T12:57:22.648Z,9.60
2023-02-18T13:02:45.898Z,9.50
2023-02-18T13:08:07.583Z,9.52
2023-02-18T13:13:14.254Z,9.39
2023-02-18T13:18:24.076Z,9.52
2023-02-18T13:23:32.082Z,9.61
2023-02-18T13:28:40.335Z,9.47
2023-02-18T13:33:51.020Z,9.50
2023-02-18T13:39:03.856Z,9.57
2023-02-18T13:44:31.394Z,9.50
2023-02-18T13:49:36.781Z,9.53
2023-02-18T13:54:45.360Z,9.59
2023-02-18T13:59:50.427Z,9.78
2023-02-18T14:04:54.739Z,9.59
2023-02-18T14:10:00.953Z,9.64
2023-02-18T14:15:23.279Z,9.47
2023-02-18T14:20:46.765Z,9.39
2023-02-18T14:25:57.165Z,9.37
2023-02-18T14:31:03.038Z,9.38
2023-02-18T14:36:19.744Z,9.48
2023-02-18T14:41:43.575Z,9.56
2023-02-18T14:47:02.635Z,9.45
2023-02-18T14:52:07.882Z,9.56
2023-02-18T14:57:17.321Z,9.41
2023-02-18T15:02:22.416Z,9.38
2023-02-18T15:07:25.220Z,9.41
2023-02-18T15:12:30.104Z,9.44
2023-02-18T15:17:33.179Z,9.47
2023-02-18T15:22:37.164Z,9.43
2023-02-18T15:27:45.767Z,9.33
2023-02-18T15:32:52.879Z,9.26
2023-02-18T15:37:56.068Z,9.19
2023-02-18T15:43:19.913Z,9.17
2023-02-18T15:48:33.489Z,9.07
2023-02-18T15:53:41.240Z,9.04
2023-02-18T15:58:45.480Z,9.01
2023-02-18T16:03:48.367Z,9.00
2023-02-18T16:08:58.853Z,8.99
2023-02-18T16:14:03.216Z,8.96
2023-02-18T16:19:06.440Z,8.95
2023-02-18T16:24:25.795Z,8.92
2023-02-18T16:29:37.240Z,8.87
2023-02-18T16:34:39.947Z,8.83
2023-02-18T16:39:43.261Z,8.82
2023-02-18T16:44:48.115Z,8.80
2023-02-18T16:49:52.181Z,8.76
2023-02-18T16:54:55.434Z,8.74
2023-02-18T16:59:59.549Z,8.71
2023-02-18T17:05:03.959Z,8.72
2023-02-18T17:10:07.837Z,8.69
2023-02-18T17:15:27.909Z,8.67
2023-02-18T17:20:33.403Z,8.63
2023-02-18T17:25:40.661Z,8.63
2023-02-18T17:30:44.689Z,8.60
2023-02-18T17:35:47.816Z,8.57
2023-02-18T17:40:51.043Z,8.55
2023-02-18T17:45:57.473Z,8.54
2023-02-18T17:51:00.418Z,8.53
2023-02-18T17:56:03.272Z,8.52
2023-02-18T18:01:07.523Z,8.50
2023-02-18T18:06:17.119Z,8.49
2023-02-18T18:11:21.831Z,8.51
2023-02-18T18:16:26.317Z,8.52
2023-02-18T18:21:32.141Z,8.51
2023-02-18T18:26:35.024Z,8.52
2023-02-18T18:31:39.351Z,8.52
2023-02-18T18:36:42.384Z,8.50
2023-02-18T18:41:45.095Z,8.49
2023-02-18T18:46:49.181Z,8.50
2023-02-18T18:51:52.618Z,8.48
2023-02-18T18:56:55.465Z,8.49
2023-02-18T19:01:59.777Z,8.50
2023-02-18T19:07:02.650Z,8.48
2023-02-18T19:12:05.899Z,8.47
2023-02-18T19:17:10.139Z,8.46
2023-02-18T19:22:13.108Z,8.46
2023-02-18T19:27:17.248Z,8.45
2023-02-18T19:32:21.448Z,8.43
2023-02-18T19:37:24.706Z,8.41
2023-02-18T19:42:27.848Z,8.39
2023-02-18T19:47:32.215Z,8.40
2023-02-18T19:52:35.162Z,8.39
2023-02-18T19:57:38.487Z,8.37
2023-02-18T20:02:43.325Z,8.33
2023-02-18T20:07:47.083Z,8.32
2023-02-18T20:12:53.527Z,8.29
2023-02-18T20:17:57.655Z,8.28
2023-02-18T20:23:00.508Z,8.29
2023-02-18T20:28:03.396Z,8.29
2023-02-18T20:33:07.554Z,8.29
2023-02-18T20:38:10.270Z,8.29
2023-02-18T20:43:13.093Z,8.31
2023-02-18T20:48:17.245Z,8.29
2023-02-18T20:53:20.061Z,8.29
2023-02-18T20:58:22.980Z,8.29
2023-02-18T21:03:27.873Z,8.28
2023-02-18T21:08:31.642Z,8.29
2023-02-18T21:13:36.057Z,8.28
2023-02-18T21:18:40.432Z,8.27
2023-02-18T21:23:43.316Z,8.29
2023-02-18T21:28:48.651Z,8.28
2023-02-18T21:33:53.199Z,8.27
2023-02-18T21:38:58.306Z,8.28
2023-02-18T21:44:01.123Z,8.29
2023-02-18T21:49:10.350Z,8.28
2023-02-18T21:54:13.138Z,8.29
2023-02-18T21:59:16.696Z,8.30
2023-02-18T22:04:21.115Z,8.29
2023-02-18T22:09:23.933Z,8.27
2023-02-18T22:14:26.799Z,8.29
2023-02-18T22:19:31.448Z,8.29
2023-02-18T22:24:34.568Z,8.30
2023-02-18T22:29:37.367Z,8.30
2023-02-18T22:34:41.711Z,8.33
2023-02-18T22:39:44.515Z,8.35
2023-02-18T22:44:47.222Z,8.31
2023-02-18T22:49:51.431Z,8.31
2023-02-18T22:54:55.066Z,8.29
2023-02-18T22:59:57.956Z,8.29
2023-02-18T23:05:02.131Z,8.29
2023-02-18T23:10:05.688Z,8.29
2023-02-18T23:15:09.257Z,8.31
2023-02-18T23:20:13.366Z,8.29
2023-02-18T23:25:16.228Z,8.28
2023-02-18T23:30:19.388Z,8.32
2023-02-18T23:35:23.545Z,8.32
2023-02-18T23:40:26.260Z,8.33
2023-02-18T23:45:29.003Z,8.33
2023-02-18T23:50:33.191Z,8.33
2023-02-18T23:55:35.937Z,8.31
